createdAt,value
2023-08-26T00:02:09.434Z,99976.22
2023-08-26T00:05:11.440Z,100047.34
2023-08-26T00:08:13.243Z,100029.72
2023-08-26T00:11:15.081Z,100038.88
2023-08-26T00:14:16.919Z,100070.47
2023-08-26T00:17:19.098Z,100061.69
2023-08-26T00:20:22.802Z,100069.63
2023-08-26T00:23:24.908Z,100061.59
2023-08-26T00:26:26.761Z,100069.63
2023-08-26T00:29:28.641Z,100035.22
2023-08-26T00:32:30.866Z,100054.25
2023-08-26T00:35:32.765Z,100059.50
2023-08-26T00:38:34.624Z,100047.44
2023-08-26T00:41:36.517Z,100034.59
2023-08-26T00:44:38.320Z,100003.50
2023-08-26T00:47:40.965Z,100034.22
2023-08-26T00:50:48.984Z,100032.72
2023-08-26T00:53:50.964Z,100033.00
2023-08-26T00:56:52.916Z,100013.97
2023-08-26T00:59:54.955Z,100031.97
2023-08-26T01:02:57.156Z,100014.69
2023-08-26T01:05:59.097Z,100019.03
2023-08-26T01:09:01.344Z,100025.75
2023-08-26T01:12:27.529Z,100011.72
2023-08-26T01:15:30.722Z,100005.13
2023-08-26T01:18:32.750Z,100018.38
2023-08-26T01:21:37.604Z,100012.66
2023-08-26T01:24:42.269Z,100026.53
2023-08-26T01:27:44.377Z,100034.72
2023-08-26T01:30:46.849Z,100024.25
2023-08-26T01:34:18.576Z,100023.13
2023-08-26T01:37:21.806Z,100029.47
2023-08-26T01:40:24.789Z,100040.19
2023-08-26T01:43:27.384Z,100032.09
2023-08-26T01:46:38.661Z,100051.47
2023-08-26T01:49:40.696Z,100044.38
2023-08-26T01:52:42.999Z,100037.97
2023-08-26T01:55:46.095Z,100045.25
2023-08-26T01:58:49.781Z,100050.84
2023-08-26T02:01:51.687Z,100029.75
2023-08-26T02:04:54.276Z,100042.31
2023-08-26T02:07:56.488Z,100010.78
2023-08-26T02:10:59.091Z,100034.72
2023-08-26T02:14:01.135Z,100027.94
2023-08-26T02:17:03.924Z,100008.22
2023-08-26T02:20:08.642Z,100009.06
2023-08-26T02:23:13.996Z,99979.53
2023-08-26T02:26:15.924Z,100008.78
2023-08-26T02:29:18.749Z,100010.72
2023-08-26T02:32:20.583Z,100003.25
2023-08-26T02:35:22.473Z,100013.09
2023-08-26T02:38:24.295Z,100014.69
2023-08-26T02:41:26.198Z,100021.97
2023-08-26T02:44:28.090Z,100000.94
2023-08-26T02:47:30.605Z,100009.25
2023-08-26T02:50:35.536Z,100016.50
2023-08-26T02:53:38.622Z,99966.75
2023-08-26T02:56:40.527Z,100002.09
2023-08-26T02:59:42.420Z,100004.78
2023-08-26T03:02:44.339Z,100008.66
2023-08-26T03:05:46.472Z,100002.03
2023-08-26T03:08:48.401Z,100011.56
2023-08-26T03:11:50.377Z,100014.44
2023-08-26T03:14:53.864Z,100012.50
2023-08-26T03:17:58.415Z,100019.34
2023-08-26T03:21:08.373Z,100009.72
2023-08-26T03:24:13.106Z,99991.47
2023-08-26T03:27:15.012Z,100025.13
2023-08-26T03:30:17.248Z,100023.19
2023-08-26T03:33:19.562Z,100026.59
2023-08-26T03:36:21.557Z,100032.94
2023-08-26T03:39:23.439Z,100044.38
2023-08-26T03:42:25.592Z,100044.47
2023-08-26T03:45:31.007Z,100005.94
2023-08-26T03:48:34.354Z,100056.53
2023-08-26T03:51:36.237Z,100056.44
2023-08-26T03:54:38.132Z,100050.78
2023-08-26T03:57:39.991Z,100066.50
2023-08-26T04:00:42.340Z,100081.59
2023-08-26T04:03:47.041Z,100075.81
2023-08-26T04:06:49.106Z,100081.78
2023-08-26T04:09:51.013Z,100082.53
2023-08-26T04:12:53.086Z,100081.50
2023-08-26T04:15:59.721Z,100087.16
2023-08-26T04:19:01.791Z,100071.84
2023-08-26T04:22:03.766Z,100081.28
2023-08-26T04:25:08.035Z,100083.06
2023-08-26T04:28:09.985Z,100017.91
2023-08-26T04:31:13.018Z,100081.16
2023-08-26T04:34:14.971Z,100107.22
2023-08-26T04:37:16.758Z,100099.72
2023-08-26T04:40:19.857Z,100106.16
2023-08-26T04:43:21.777Z,100099.78
2023-08-26T04:46:25.384Z,100081.16
2023-08-26T04:49:27.503Z,100106.63
2023-08-26T04:52:29.328Z,100105.94
2023-08-26T04:55:34.019Z,100111.06
2023-08-26T04:58:38.605Z,100106.91
2023-08-26T05:01:40.784Z,100072.56
2023-08-26T05:04:42.688Z,100093.75
2023-08-26T05:07:44.566Z,100089.00
2023-08-26T05:10:48.206Z,100084.03
2023-08-26T05:13:50.063Z,100077.41
2023-08-26T05:16:52.466Z,100075.59
2023-08-26T05:19:54.383Z,100078.69
2023-08-26T05:22:58.082Z,100069.28
2023-08-26T05:26:00.005Z,100070.25
2023-08-26T05:29:02.498Z,100079.59
2023-08-26T05:32:04.614Z,100078.13
2023-08-26T05:35:06.828Z,100074.19
2023-08-26T05:38:08.776Z,100031.84
2023-08-26T05:41:13.305Z,100072.56
2023-08-26T05:44:15.489Z,100073.56
2023-08-26T05:47:17.390Z,100085.47
2023-08-26T05:50:19.537Z,100083.50
2023-08-26T05:53:21.379Z,100078.97
2023-08-26T05:56:23.272Z,100078.97
2023-08-26T05:59:25.106Z,100084.03
2023-08-26T06:02:27.189Z,100091.59
2023-08-26T06:05:29.130Z,100086.28
2023-08-26T06:08:31.215Z,100072.34
2023-08-26T06:11:33.177Z,100086.75
2023-08-26T06:14:35.472Z,100097.88
2023-08-26T06:17:37.394Z,100088.28
2023-08-26T06:20:39.319Z,100098.94
2023-08-26T06:23:41.346Z,100088.66
2023-08-26T06:26:45.237Z,100057.78
2023-08-26T06:29:55.266Z,100091.72
2023-08-26T06:32:57.790Z,100096.72
2023-08-26T06:36:01.996Z,100097.19
2023-08-26T06:39:05.199Z,100091.63
2023-08-26T06:42:07.526Z,100098.09
2023-08-26T06:45:16.809Z,100089.78
2023-08-26T06:48:19.931Z,100090.94
2023-08-26T06:51:21.819Z,100071.38
2023-08-26T06:54:23.742Z,100071.88
2023-08-26T06:57:26.153Z,100103.75
2023-08-26T07:00:28.104Z,100113.81
2023-08-26T07:03:30.375Z,100104.38
2023-08-26T07:06:32.805Z,100106.97
2023-08-26T07:09:34.635Z,100106.25
2023-08-26T07:12:39.225Z,100111.50
2023-08-26T07:15:41.642Z,100110.31
2023-08-26T07:18:43.629Z,100110.56
2023-08-26T07:21:45.567Z,100101.47
2023-08-26T07:24:48.053Z,100117.47
2023-08-26T07:27:49.919Z,100110.06
2023-08-26T07:30:53.056Z,100106.31
2023-08-26T07:33:54.872Z,100111.06
2023-08-26T07:36:57.034Z,100106.66
2023-08-26T07:40:02.334Z,100104.97
2023-08-26T07:43:04.982Z,100108.38
2023-08-26T07:49:11.763Z,100103.00
2023-08-26T07:52:14.643Z,100100.63
2023-08-26T07:55:16.746Z,100104.59
2023-08-26T07:58:18.570Z,100084.81
2023-08-26T08:01:21.729Z,100100.09
2023-08-26T08:04:23.672Z,100113.13
2023-08-26T08:07:25.639Z,100110.28
2023-08-26T08:10:27.591Z,100096.75
2023-08-26T08:13:29.468Z,100098.75
2023-08-26T08:16:31.330Z,100104.69
2023-08-26T08:19:38.710Z,100098.59
2023-08-26T08:22:42.903Z,100090.47
2023-08-26T08:25:44.976Z,100096.28
2023-08-26T08:28:46.863Z,100101.72
2023-08-26T08:31:48.762Z,100102.72
2023-08-26T08:34:50.916Z,100103.47
2023-08-26T08:37:53.109Z,100096.63
2023-08-26T08:40:55.252Z,100062.81
2023-08-26T08:44:03.594Z,100110.25
2023-08-26T08:47:06.058Z,100097.28
2023-08-26T08:50:09.549Z,100105.56
2023-08-26T08:53:14.096Z,100097.00
2023-08-26T08:56:20.576Z,100107.44
2023-08-26T08:59:23.380Z,100103.28
2023-08-26T09:02:28.052Z,100096.88
2023-08-26T09:05:30.396Z,100094.16
2023-08-26T09:08:33.074Z,100068.47
2023-08-26T09:11:35.748Z,100098.94
2023-08-26T09:14:39.908Z,100094.00
2023-08-26T09:17:48.878Z,100100.13
2023-08-26T09:20:50.798Z,100109.97
2023-08-26T09:23:52.727Z,100080.34
2023-08-26T09:27:02.104Z,100106.47
2023-08-26T09:30:05.417Z,100100.09
2023-08-26T09:33:15.454Z,100090.34
2023-08-26T09:39:23.431Z,100078.59
2023-08-26T09:42:25.645Z,100068.13
2023-08-26T09:45:27.635Z,100055.53
2023-08-26T09:48:29.607Z,100091.03
2023-08-26T09:51:32.083Z,100078.41
2023-08-26T09:54:35.714Z,100063.00
2023-08-26T09:57:37.824Z,100074.38
2023-08-26T10:00:39.816Z,100071.31
2023-08-26T10:03:45.760Z,100067.72
2023-08-26T10:06:56.888Z,100057.59
2023-08-26T10:10:09.228Z,100050.47
2023-08-26T10:13:11.527Z,100046.91
2023-08-26T10:16:22.941Z,100029.13
2023-08-26T10:19:31.326Z,100043.84
2023-08-26T10:22:37.461Z,100029.03
2023-08-26T10:25:41.347Z,100050.00
2023-08-26T10:28:44.256Z,100013.03
2023-08-26T10:31:48.104Z,100037.63
2023-08-26T10:35:00.433Z,100030.13
2023-08-26T10:38:10.722Z,100033.94
2023-08-26T10:41:13.220Z,100038.63
2023-08-26T10:44:15.460Z,99993.53
2023-08-26T10:47:40.168Z,100024.69
2023-08-26T10:50:48.000Z,100033.47
2023-08-26T10:53:50.101Z,100019.53
2023-08-26T10:57:08.912Z,99989.34
2023-08-26T11:00:14.452Z,100021.19
2023-08-26T11:03:19.771Z,100018.88
2023-08-26T11:06:23.638Z,100022.06
2023-08-26T11:09:30.355Z,100000.81
2023-08-26T11:12:37.088Z,100021.25
2023-08-26T11:15:43.495Z,100016.34
2023-08-26T11:18:46.936Z,100008.56
2023-08-26T11:21:48.929Z,99988.81
2023-08-26T11:24:52.528Z,100004.41
2023-08-26T11:28:06.648Z,100008.00
2023-08-26T11:31:08.545Z,100000.22
2023-08-26T11:34:10.686Z,100018.34
2023-08-26T11:37:12.566Z,100014.16
2023-08-26T11:40:15.404Z,100008.66
2023-08-26T11:43:19.652Z,100020.84
2023-08-26T11:46:21.905Z,100016.41
2023-08-26T11:49:24.793Z,100010.28
2023-08-26T11:52:36.746Z,100013.78
2023-08-26T11:55:40.278Z,100020.44
2023-08-26T11:58:42.192Z,100022.75
2023-08-26T12:01:44.101Z,100030.75
2023-08-26T12:04:46.886Z,100027.06
2023-08-26T12:07:51.172Z,100028.72
2023-08-26T12:10:54.558Z,100025.28
2023-08-26T12:13:56.612Z,100041.00
2023-08-26T12:17:05.870Z,100031.41
2023-08-26T12:20:20.698Z,100021.28
2023-08-26T12:23:22.921Z,99982.16
2023-08-26T12:26:24.885Z,100008.34
2023-08-26T12:29:26.761Z,99988.53
2023-08-26T12:32:29.050Z,100004.13
2023-08-26T12:35:32.428Z,99987.69
2023-08-26T12:38:35.026Z,99988.13
2023-08-26T12:41:36.889Z,99960.72
2023-08-26T12:44:39.925Z,99992.50
2023-08-26T12:47:44.086Z,99977.38
2023-08-26T12:50:46.848Z,99963.03
2023-08-26T12:53:48.865Z,99968.34
2023-08-26T12:56:51.203Z,99976.16
2023-08-26T12:59:53.062Z,99952.00
2023-08-26T13:02:55.133Z,99957.69
2023-08-26T13:05:57.143Z,99971.34
2023-08-26T13:08:59.124Z,99974.09
2023-08-26T13:12:01.075Z,99967.56
2023-08-26T13:15:03.474Z,99959.59
2023-08-26T13:18:05.704Z,99955.16
2023-08-26T13:21:07.606Z,99930.09
2023-08-26T13:24:10.756Z,99927.13
2023-08-26T13:27:12.772Z,99929.84
2023-08-26T13:30:14.691Z,99938.72
2023-08-26T13:33:16.614Z,99936.59
2023-08-26T13:36:19.028Z,99913.63
2023-08-26T13:39:20.963Z,99944.75
2023-08-26T13:42:22.855Z,99938.91
2023-08-26T13:45:24.879Z,99921.44
2023-08-26T13:48:26.913Z,99957.84
2023-08-26T13:51:29.985Z,99951.50
2023-08-26T13:54:31.861Z,99954.25
2023-08-26T13:57:34.610Z,99956.78
2023-08-26T14:00:36.597Z,99932.63
2023-08-26T14:03:38.936Z,99961.88
2023-08-26T14:06:41.311Z,99956.88
2023-08-26T14:09:44.429Z,99946.34
2023-08-26T14:12:46.641Z,99966.31
2023-08-26T14:15:50.080Z,99957.06
2023-08-26T14:18:52.087Z,99946.09
2023-08-26T14:21:54.073Z,99970.09
2023-08-26T14:24:56.063Z,99946.56
2023-08-26T14:27:59.882Z,99939.75
2023-08-26T14:31:04.556Z,99974.47
2023-08-26T14:34:06.529Z,99961.56
2023-08-26T14:37:08.471Z,99957.31
2023-08-26T14:40:10.649Z,99957.72
2023-08-26T14:43:13.849Z,99942.38
2023-08-26T14:46:15.862Z,99933.25
2023-08-26T14:49:18.708Z,99935.38
2023-08-26T14:52:20.591Z,99937.06
2023-08-26T14:55:22.579Z,99943.16
2023-08-26T14:58:25.902Z,99910.72
2023-08-26T15:01:27.981Z,99939.88
2023-08-26T15:04:29.875Z,99926.84
2023-08-26T15:07:31.739Z,99919.69
2023-08-26T15:10:33.642Z,99922.66
2023-08-26T15:13:35.843Z,99930.25
2023-08-26T15:16:37.836Z,99927.34
2023-08-26T15:19:39.924Z,99942.22
2023-08-26T15:22:41.819Z,99941.78
2023-08-26T15:25:48.243Z,99930.22
2023-08-26T15:28:50.251Z,99923.28
2023-08-26T15:31:52.273Z,99904.50
2023-08-26T15:34:54.343Z,99910.06
2023-08-26T15:37:57.050Z,99892.03
2023-08-26T15:41:04.580Z,99906.97
2023-08-26T15:44:06.843Z,99899.06
2023-08-26T15:47:09.079Z,99891.59
2023-08-26T15:50:11.449Z,99882.19
2023-08-26T15:53:14.851Z,99866.81
2023-08-26T15:56:16.956Z,99865.34
2023-08-26T15:59:19.093Z,99837.59
2023-08-26T16:02:21.219Z,99829.84
2023-08-26T16:05:23.571Z,99832.78
2023-08-26T16:08:25.581Z,99818.59
2023-08-26T16:11:31.689Z,99834.16
2023-08-26T16:14:36.250Z,99833.72
2023-08-26T16:17:38.328Z,99819.53
2023-08-26T16:20:41.349Z,99819.88
2023-08-26T16:23:43.289Z,99829.56
2023-08-26T16:26:45.482Z,99812.97
2023-08-26T16:29:47.949Z,99819.31
2023-08-26T16:32:51.494Z,99806.59
2023-08-26T16:35:53.505Z,99818.78
2023-08-26T16:38:55.445Z,99820.59
2023-08-26T16:41:57.354Z,99810.25
2023-08-26T16:44:59.267Z,99825.28
2023-08-26T16:48:01.255Z,99819.31
2023-08-26T16:51:03.445Z,99832.75
2023-08-26T16:54:06.355Z,99824.88
2023-08-26T16:57:09.185Z,99842.72
2023-08-26T17:00:11.858Z,99850.72
2023-08-26T17:03:14.318Z,99850.34
2023-08-26T17:06:16.405Z,99862.03
2023-08-26T17:09:18.418Z,99847.81
2023-08-26T17:12:20.323Z,99836.22
2023-08-26T17:15:22.317Z,99855.94
2023-08-26T17:18:24.922Z,99862.44
2023-08-26T17:21:26.849Z,99855.38
2023-08-26T17:24:28.855Z,99844.59
2023-08-26T17:27:33.414Z,99849.25
2023-08-26T17:30:35.891Z,99861.91
2023-08-26T17:33:39.431Z,99850.97
2023-08-26T17:36:41.349Z,99855.69
2023-08-26T17:39:44.432Z,99857.97
2023-08-26T17:42:49.412Z,99842.13
2023-08-26T17:45:54.775Z,99851.84
2023-08-26T17:48:56.878Z,99860.50
2023-08-26T17:51:58.965Z,99865.78
2023-08-26T17:55:01.017Z,99851.09
2023-08-26T17:58:03.762Z,99866.53
2023-08-26T18:01:05.890Z,99846.03
2023-08-26T18:04:08.357Z,99860.09
2023-08-26T18:07:10.248Z,99853.06
2023-08-26T18:10:12.218Z,99862.53
2023-08-26T18:13:14.777Z,99863.03
2023-08-26T18:16:16.852Z,99836.25
2023-08-26T18:19:18.912Z,99822.56
2023-08-26T18:22:20.810Z,99844.38
2023-08-26T18:25:22.935Z,99862.66
2023-08-26T18:28:24.798Z,99863.00
2023-08-26T18:31:26.821Z,99866.03
2023-08-26T18:34:28.819Z,99846.56
2023-08-26T18:37:32.574Z,99851.13
2023-08-26T18:40:34.397Z,99850.97
2023-08-26T18:43:36.367Z,99849.06
2023-08-26T18:46:38.565Z,99829.75
2023-08-26T18:49:40.470Z,99852.72
2023-08-26T18:52:42.502Z,99841.19
2023-08-26T18:55:50.498Z,99841.66
2023-08-26T18:58:52.373Z,99836.38
2023-08-26T19:01:54.295Z,99858.53
2023-08-26T19:04:56.428Z,99858.34
2023-08-26T19:07:58.289Z,99846.47
2023-08-26T19:11:00.161Z,99854.53
2023-08-26T19:14:02.100Z,99840.75
2023-08-26T19:17:04.172Z,99855.41
2023-08-26T19:20:07.002Z,99842.56
2023-08-26T19:23:08.925Z,99827.94
2023-08-26T19:26:11.461Z,99813.00
2023-08-26T19:29:13.363Z,99861.44
2023-08-26T19:32:15.285Z,99858.66
2023-08-26T19:35:17.288Z,99860.66
2023-08-26T19:38:19.264Z,99850.50
2023-08-26T19:41:21.275Z,99847.44
2023-08-26T19:44:23.375Z,99855.69
2023-08-26T19:47:25.330Z,99848.13
2023-08-26T19:50:27.252Z,99857.06
2023-08-26T19:53:29.174Z,99858.16
2023-08-26T19:56:31.105Z,99856.63
2023-08-26T19:59:33.000Z,99856.63
2023-08-26T20:02:34.923Z,99865.09
2023-08-26T20:05:37.294Z,99860.81
2023-08-26T20:08:39.176Z,99879.28
2023-08-26T20:11:41.092Z,99878.44
2023-08-26T20:14:43.126Z,99873.66
2023-08-26T20:17:45.040Z,99846.81
2023-08-26T20:20:47.026Z,99870.34
2023-08-26T20:23:48.923Z,99858.47
2023-08-26T20:26:50.861Z,99870.09
2023-08-26T20:29:52.983Z,99864.31
2023-08-26T20:32:54.872Z,99880.50
2023-08-26T20:35:57.794Z,99869.22
2023-08-26T20:38:59.776Z,99894.00
2023-08-26T20:42:04.143Z,99892.59
2023-08-26T20:45:07.690Z,99900.84
2023-08-26T20:48:09.564Z,99894.91
2023-08-26T20:51:11.438Z,99884.38
2023-08-26T20:54:13.406Z,99876.75
2023-08-26T20:57:15.279Z,99866.34
2023-08-26T21:00:17.293Z,99861.25
2023-08-26T21:03:19.243Z,99867.91
2023-08-26T21:06:21.305Z,99865.50
2023-08-26T21:09:23.273Z,99862.41
2023-08-26T21:12:25.660Z,99850.84
2023-08-26T21:15:28.120Z,99849.75
2023-08-26T21:18:30.162Z,99871.31
2023-08-26T21:21:32.054Z,99860.44
2023-08-26T21:24:33.967Z,99823.34
2023-08-26T21:27:37.458Z,99850.25
2023-08-26T21:30:39.438Z,99863.41
2023-08-26T21:33:41.737Z,99868.38
2023-08-26T21:36:43.739Z,99859.41
2023-08-26T21:39:46.852Z,99863.84
2023-08-26T21:42:48.749Z,99869.53
2023-08-26T21:45:51.823Z,99869.38
2023-08-26T21:48:53.739Z,99859.19
2023-08-26T21:51:55.597Z,99844.88
2023-08-26T21:54:57.462Z,99830.31
2023-08-26T21:58:07.290Z,99849.44
2023-08-26T22:01:09.989Z,99868.56
2023-08-26T22:04:12.085Z,99830.22
2023-08-26T22:07:14.290Z,99863.19
2023-08-26T22:10:16.187Z,99849.31
2023-08-26T22:13:18.702Z,99842.38
2023-08-26T22:16:20.789Z,99855.25
2023-08-26T22:19:23.224Z,99849.47
2023-08-26T22:22:25.106Z,99828.94
2023-08-26T22:25:26.979Z,99858.13
2023-08-26T22:28:28.956Z,99795.53
2023-08-26T22:31:31.111Z,99873.72
2023-08-26T22:34:33.253Z,99871.16
2023-08-26T22:37:35.808Z,99822.31
2023-08-26T22:40:37.637Z,99853.72
2023-08-26T22:43:39.431Z,99856.41
2023-08-26T22:46:41.328Z,99861.25
2023-08-26T22:49:43.238Z,99853.59
2023-08-26T22:52:45.080Z,99859.88
2023-08-26T22:55:47.090Z,99845.09
2023-08-26T22:58:49.716Z,99846.00
2023-08-26T23:01:51.625Z,99837.16
2023-08-26T23:04:53.539Z,99829.97
2023-08-26T23:07:55.535Z,99791.56
2023-08-26T23:10:59.378Z,99823.56
2023-08-26T23:14:01.191Z,99811.13
2023-08-26T23:17:03.415Z,99816.22
2023-08-26T23:20:08.955Z,99813.53
2023-08-26T23:23:11.164Z,99801.91
2023-08-26T23:26:12.979Z,99792.41
2023-08-26T23:29:15.285Z,99779.41
2023-08-26T23:32:17.533Z,99770.22
2023-08-26T23:35:19.677Z,99792.84
2023-08-26T23:38:21.591Z,99787.63
2023-08-26T23:41:23.429Z,99757.47
2023-08-26T23:44:25.351Z,99767.81
2023-08-26T23:47:30.311Z,99761.28
2023-08-26T23:50:32.210Z,99768.66
2023-08-26T23:53:34.201Z,99732.13
2023-08-26T23:56:36.164Z,99740.19
2023-08-26T23:59:38.882Z,99730.31
